createdAt,value
2023-03-18T00:04:46.895Z,2.63
2023-03-18T00:09:50.815Z,2.88
2023-03-18T00:14:54.099Z,2.42
2023-03-18T00:20:05.792Z,3.78
2023-03-18T00:25:10.954Z,3.92
2023-03-18T00:30:15.088Z,3.03
2023-03-18T00:35:19.997Z,3.93
2023-03-18T00:40:30.254Z,3.35
2023-03-18T00:45:33.660Z,2.78
2023-03-18T00:50:38.715Z,3.28
2023-03-18T01:00:46.003Z,3.50
2023-03-18T01:05:51.447Z,3.13
2023-03-18T01:10:54.786Z,3.22
2023-03-18T01:15:58.080Z,2.70
2023-03-18T01:21:02.808Z,3.42
2023-03-18T01:26:07.091Z,2.72
2023-03-18T01:31:10.860Z,2.83
2023-03-18T01:36:15.805Z,2.88
2023-03-18T01:46:34.724Z,2.90
2023-03-18T01:51:41.976Z,2.88
2023-03-18T01:56:47.598Z,2.25
2023-03-18T02:01:55.257Z,3.08
2023-03-18T02:07:01.528Z,3.33
2023-03-18T02:12:04.863Z,2.50
2023-03-18T02:17:12.332Z,2.95
2023-03-18T02:22:25.007Z,2.78
2023-03-18T02:27:32.958Z,3.22
2023-03-18T02:32:37.200Z,2.95
2023-03-18T02:37:40.674Z,3.00
2023-03-18T02:42:46.138Z,2.55
2023-03-18T02:47:50.309Z,2.70
2023-03-18T02:52:53.452Z,9.07
2023-03-18T02:57:58.074Z,5.30
2023-03-18T03:03:02.017Z,4.57
2023-03-18T03:08:05.933Z,2.90
2023-03-18T03:13:11.790Z,3.10
2023-03-18T03:18:15.675Z,2.80
2023-03-18T03:23:18.962Z,3.65
2023-03-18T03:28:23.620Z,3.80
2023-03-18T03:33:27.958Z,2.85
2023-03-18T03:38:31.169Z,2.53
2023-03-18T03:43:35.837Z,2.25
2023-03-18T03:48:39.656Z,2.22
2023-03-18T03:53:43.796Z,3.88
2023-03-18T03:58:48.581Z,3.13
2023-03-18T04:03:51.890Z,2.85
2023-03-18T04:08:55.568Z,2.50
2023-03-18T04:14:00.304Z,2.40
2023-03-18T04:19:03.584Z,3.40
2023-03-18T04:24:07.765Z,2.22
2023-03-18T04:29:12.592Z,2.97
2023-03-18T04:34:15.916Z,3.30
2023-03-18T04:39:19.430Z,1.52
2023-03-18T04:44:24.455Z,1.80
2023-03-18T04:54:30.658Z,2.45
2023-03-18T04:59:35.472Z,2.25
2023-03-18T05:04:39.284Z,5.30
2023-03-18T05:09:43.839Z,9.90
2023-03-18T05:14:48.698Z,4.13
2023-03-18T05:19:52.066Z,4.05
2023-03-18T05:24:56.042Z,4.15
2023-03-18T05:30:01.267Z,3.25
2023-03-18T05:35:05.784Z,3.28
2023-03-18T05:40:11.849Z,3.47
2023-03-18T05:45:16.563Z,3.17
2023-03-18T05:50:29.159Z,2.40
2023-03-18T05:55:33.121Z,2.50
2023-03-18T06:00:38.565Z,3.23
2023-03-18T06:05:42.331Z,3.38
2023-03-18T06:10:45.810Z,2.85
2023-03-18T06:15:50.475Z,3.65
2023-03-18T06:20:53.810Z,3.33
2023-03-18T06:25:57.350Z,3.42
2023-03-18T06:31:02.879Z,2.65
2023-03-18T06:36:07.069Z,3.22
2023-03-18T06:41:10.471Z,3.30
2023-03-18T06:46:15.638Z,2.67
2023-03-18T06:51:18.852Z,5.10
2023-03-18T06:56:22.383Z,3.35
2023-03-18T07:01:27.139Z,2.95
2023-03-18T07:06:31.951Z,2.60
2023-03-18T07:11:35.195Z,2.75
2023-03-18T07:16:39.809Z,2.63
2023-03-18T07:21:43.959Z,2.88
2023-03-18T07:26:47.443Z,3.47
2023-03-18T07:31:52.050Z,3.00
2023-03-18T07:36:55.310Z,4.03
2023-03-18T07:41:58.546Z,3.22
2023-03-18T07:47:03.764Z,2.40
2023-03-18T07:52:07.235Z,2.70
2023-03-18T07:57:11.752Z,2.50
2023-03-18T08:02:17.195Z,2.97
2023-03-18T08:07:20.330Z,3.03
2023-03-18T08:12:23.754Z,3.08
2023-03-18T08:17:28.527Z,3.40
2023-03-18T08:22:31.840Z,2.72
2023-03-18T08:27:35.250Z,2.30
2023-03-18T08:32:39.897Z,2.03
2023-03-18T08:37:43.179Z,2.50
2023-03-18T08:42:47.150Z,2.20
2023-03-18T08:47:51.764Z,2.03
2023-03-18T08:52:55.137Z,1.42
2023-03-18T08:57:58.900Z,1.98
2023-03-18T09:03:03.826Z,2.20
2023-03-18T09:13:10.406Z,2.40
2023-03-18T09:18:15.121Z,1.70
2023-03-18T09:23:18.799Z,1.58
2023-03-18T09:28:22.349Z,1.73
2023-03-18T09:33:26.988Z,1.30
2023-03-18T09:38:30.237Z,1.50
2023-03-18T09:43:57.520Z,1.40
2023-03-18T09:49:29.979Z,1.02
2023-03-18T09:54:39.505Z,1.30
2023-03-18T09:59:47.073Z,1.70
2023-03-18T10:04:56.318Z,1.20
2023-03-18T10:10:03.910Z,1.73
2023-03-18T10:15:16.536Z,2.65
2023-03-18T10:20:28.901Z,2.97
2023-03-18T10:25:37.672Z,2.90
2023-03-18T10:30:55.123Z,1.98
2023-03-18T10:36:06.672Z,1.85
2023-03-18T10:41:17.851Z,2.47
2023-03-18T10:46:23.198Z,2.45
2023-03-18T10:51:36.440Z,3.25
2023-03-18T10:56:39.853Z,2.30
2023-03-18T11:01:45.791Z,1.55
2023-03-18T11:06:54.473Z,1.50
2023-03-18T11:12:00.142Z,1.50
2023-03-18T11:17:05.367Z,1.60
2023-03-18T11:22:20.582Z,1.55
2023-03-18T11:27:28.079Z,2.15
2023-03-18T11:32:34.343Z,1.77
2023-03-18T11:37:41.475Z,1.95
2023-03-18T11:42:45.580Z,1.10
2023-03-18T11:47:49.399Z,1.73
2023-03-18T11:53:00.843Z,1.10
2023-03-18T11:58:36.706Z,1.30
2023-03-18T12:03:59.806Z,1.20
2023-03-18T12:09:11.044Z,1.20
2023-03-18T12:14:21.484Z,1.45
2023-03-18T12:19:42.542Z,1.40
2023-03-18T12:25:03.718Z,1.40
2023-03-18T12:30:23.113Z,1.20
2023-03-18T12:35:39.413Z,1.67
2023-03-18T12:41:01.114Z,1.48
2023-03-18T12:46:12.176Z,1.70
2023-03-18T12:51:19.716Z,1.55
2023-03-18T12:56:27.632Z,1.60
2023-03-18T13:01:39.052Z,1.00
2023-03-18T13:06:45.814Z,1.13
2023-03-18T13:12:01.989Z,0.80
2023-03-18T13:17:05.852Z,0.68
2023-03-18T13:22:25.357Z,1.10
2023-03-18T13:27:45.611Z,0.80
2023-03-18T13:33:03.461Z,0.90
2023-03-18T13:38:28.096Z,1.00
2023-03-18T13:43:35.101Z,0.93
2023-03-18T13:48:41.972Z,1.25
2023-03-18T13:53:45.437Z,1.27
2023-03-18T13:58:52.596Z,1.05
2023-03-18T14:03:58.386Z,1.23
2023-03-18T14:09:36.148Z,1.50
2023-03-18T14:15:02.746Z,2.03
2023-03-18T14:20:23.888Z,2.63
2023-03-18T14:25:42.220Z,1.85
2023-03-18T14:30:50.176Z,1.08
2023-03-18T14:35:58.417Z,1.10
2023-03-18T14:41:04.672Z,1.50
2023-03-18T14:46:19.057Z,6.80
2023-03-18T14:51:23.796Z,2.70
2023-03-18T14:56:31.246Z,2.40
2023-03-18T15:01:39.099Z,1.55
2023-03-18T15:06:43.176Z,2.17
2023-03-18T15:11:47.912Z,1.58
2023-03-18T15:16:54.812Z,2.33
2023-03-18T15:22:03.523Z,4.60
2023-03-18T15:27:12.617Z,4.57
2023-03-18T15:32:21.420Z,2.38
2023-03-18T15:37:42.533Z,2.75
2023-03-18T15:42:46.202Z,3.72
2023-03-18T15:47:50.799Z,2.63
2023-03-18T15:58:19.472Z,2.10
2023-03-18T16:03:26.109Z,2.80
2023-03-18T16:08:29.591Z,2.17
2023-03-18T16:13:35.848Z,2.13
2023-03-18T16:18:40.636Z,2.20
2023-03-18T16:23:43.796Z,2.33
2023-03-18T16:28:48.631Z,3.88
2023-03-18T16:33:56.341Z,1.98
2023-03-18T16:38:59.608Z,2.20
2023-03-18T16:44:03.271Z,1.70
2023-03-18T16:49:07.856Z,3.42
2023-03-18T16:54:19.136Z,2.85
2023-03-18T16:59:23.382Z,2.75
2023-03-18T17:04:30.202Z,2.20
2023-03-18T17:09:33.741Z,2.00
2023-03-18T17:14:39.973Z,1.98
2023-03-18T17:19:44.899Z,2.33
2023-03-18T17:24:48.321Z,2.80
2023-03-18T17:29:51.531Z,2.75
2023-03-18T17:34:56.477Z,2.35
2023-03-18T17:39:59.668Z,2.15
2023-03-18T17:45:07.587Z,1.80
2023-03-18T17:50:15.192Z,1.73
2023-03-18T17:55:22.570Z,2.13
2023-03-18T18:00:27.651Z,2.63
2023-03-18T18:05:32.603Z,2.63
2023-03-18T18:10:35.959Z,2.22
2023-03-18T18:15:39.205Z,2.13
2023-03-18T18:20:43.898Z,1.95
2023-03-18T18:25:47.064Z,2.25
2023-03-18T18:30:50.513Z,2.33
2023-03-18T18:35:55.778Z,2.13
2023-03-18T18:41:00.430Z,1.50
2023-03-18T18:46:03.769Z,1.63
2023-03-18T18:51:15.667Z,1.67
2023-03-18T18:56:23.184Z,2.10
2023-03-18T19:01:26.416Z,2.20
2023-03-18T19:06:32.754Z,1.98
2023-03-18T19:11:37.068Z,1.75
2023-03-18T19:16:40.233Z,1.70
2023-03-18T19:21:44.962Z,2.13
2023-03-18T19:26:48.133Z,2.53
2023-03-18T19:31:51.772Z,2.35
2023-03-18T19:36:56.926Z,2.22
2023-03-18T19:42:00.192Z,2.60
2023-03-18T19:47:04.261Z,4.85
2023-03-18T19:52:17.728Z,12.03
2023-03-18T19:57:24.484Z,6.22
2023-03-18T20:02:29.734Z,4.50
2023-03-18T20:07:34.298Z,3.78
2023-03-18T20:12:39.361Z,4.13
2023-03-18T20:17:43.998Z,4.10
2023-03-18T20:22:52.531Z,4.35
2023-03-18T20:27:56.835Z,4.90
2023-03-18T20:33:00.713Z,4.50
2023-03-18T20:38:11.934Z,4.53
2023-03-18T20:43:16.736Z,4.85
2023-03-18T20:48:20.030Z,4.22
2023-03-18T20:53:27.524Z,4.57
2023-03-18T20:58:30.879Z,4.25
2023-03-18T21:03:36.096Z,3.67
2023-03-18T21:08:41.262Z,4.22
2023-03-18T21:13:44.553Z,3.92
2023-03-18T21:18:48.490Z,3.63
2023-03-18T21:23:54.840Z,3.08
2023-03-18T21:28:58.826Z,3.15
2023-03-18T21:34:02.469Z,3.00
2023-03-18T21:39:07.576Z,2.72
2023-03-18T21:44:12.677Z,3.25
2023-03-18T21:49:16.287Z,7.93
2023-03-18T21:54:21.113Z,4.00
2023-03-18T21:59:24.404Z,3.78
2023-03-18T22:04:27.685Z,3.85
2023-03-18T22:09:32.369Z,3.38
2023-03-18T22:14:35.642Z,3.40
2023-03-18T22:19:38.844Z,3.75
2023-03-18T22:24:43.555Z,3.90
2023-03-18T22:29:47.196Z,4.47
2023-03-18T22:34:50.636Z,4.47
2023-03-18T22:39:55.348Z,3.28
2023-03-18T22:44:58.609Z,3.60
2023-03-18T22:50:01.825Z,3.58
2023-03-18T22:55:18.108Z,3.80
2023-03-18T23:00:26.234Z,3.72
2023-03-18T23:05:29.601Z,3.80
2023-03-18T23:10:34.500Z,3.55
2023-03-18T23:15:37.729Z,3.78
2023-03-18T23:20:41.055Z,3.90
2023-03-18T23:25:47.287Z,4.28
2023-03-18T23:30:52.723Z,3.95
2023-03-18T23:35:55.961Z,4.03
2023-03-18T23:41:00.530Z,4.00
2023-03-18T23:46:03.946Z,4.10
2023-03-18T23:51:07.489Z,4.00
2023-03-18T23:56:13.958Z,4.30
